PILOTS ONLINE: 383    ATC ONLINE: 55

KNSE

Whiting Field Naval Air Station North Airport

Location

City Milton
Country  United States
Latitude 30° 43' 27" N
Longitude 87° 1' 18" W
Elevation 199 ft
Type Medium Airport

Map

Weather

METAR
2014/10/20 21:56
KNSE 202156Z 29005KT 10SM FEW040 SCT120 SCT220 25/10 A2997 RMK AO2 SLP137 T02500100 $
TAF
2014/10/20 17:03
TAF 
      AMD KNSE 2017/2115 VRB05KT 9999 FEW050 SCT250 QNH2997INS 
     FM202000 27005KT 9999 FEW050 BKN250 QNH2995INS 
     FM210100 00000KT 9999 SKC QNH2994INS 
     FM211400 36004KT 9999 FEW250 QNH3001INS T26/2020Z T09/2111Z 
      AMD 1759 FN20031

Runways

05/23 6000 ft / 200 ft
09/27 6000 ft / 200 ft
14/32 6000 ft / 200 ft
18/36 6000 ft / 200 ft

Outbound flights

Callsign Flying to Pilot ATD/STD ETA Aircraft

Inbound flights

Callsign Flying from Pilot ATD ETA Aircraft